sensor_id;sensor_type;location;lat;lon;timestamp;pressure;altitude;pressure_sealevel;temperature
73734;BMP280;62039;50.000;9.064;2022-10-22T00:00:54;99920.25;;;14.27
73734;BMP280;62039;50.000;9.064;2022-10-22T00:03:21;99930.75;;;14.27
73734;BMP280;62039;50.000;9.064;2022-10-22T00:05:47;99925.69;;;14.26
73734;BMP280;62039;50.000;9.064;2022-10-22T00:08:14;99936.38;;;14.24
73734;BMP280;62039;50.000;9.064;2022-10-22T00:10:42;99930.31;;;14.24
73734;BMP280;62039;50.000;9.064;2022-10-22T00:13:09;99928.69;;;14.23
73734;BMP280;62039;50.000;9.064;2022-10-22T00:15:36;99925.28;;;14.22
73734;BMP280;62039;50.000;9.064;2022-10-22T00:18:02;99924.47;;;14.22
73734;BMP280;62039;50.000;9.064;2022-10-22T00:20:29;99906.91;;;14.22
73734;BMP280;62039;50.000;9.064;2022-10-22T00:22:56;99904.88;;;14.24
73734;BMP280;62039;50.000;9.064;2022-10-22T00:25:22;99892.75;;;14.23
73734;BMP280;62039;50.000;9.064;2022-10-22T00:27:50;99892.75;;;14.23
73734;BMP280;62039;50.000;9.064;2022-10-22T00:30:17;99879.81;;;14.22
73734;BMP280;62039;50.000;9.064;2022-10-22T00:32:43;99881.63;;;14.21
73734;BMP280;62039;50.000;9.064;2022-10-22T00:35:10;99884.25;;;14.21
73734;BMP280;62039;50.000;9.064;2022-10-22T00:37:36;99882.63;;;14.20
73734;BMP280;62039;50.000;9.064;2022-10-22T00:40:04;99881.00;;;14.19
73734;BMP280;62039;50.000;9.064;2022-10-22T00:42:30;99882.00;;;14.18
73734;BMP280;62039;50.000;9.064;2022-10-22T00:45:06;99882.00;;;14.18
73734;BMP280;62039;50.000;9.064;2022-10-22T00:47:35;99877.75;;;14.17
73734;BMP280;62039;50.000;9.064;2022-10-22T00:50:05;99882.00;;;14.18
73734;BMP280;62039;50.000;9.064;2022-10-22T00:52:32;99884.63;;;14.18
73734;BMP280;62039;50.000;9.064;2022-10-22T00:54:59;99895.56;;;14.22
73734;BMP280;62039;50.000;9.064;2022-10-22T00:57:27;99889.09;;;14.24
73734;BMP280;62039;50.000;9.064;2022-10-22T00:59:54;99884.47;;;14.26
73734;BMP280;62039;50.000;9.064;2022-10-22T01:02:23;99885.09;;;14.28
73734;BMP280;62039;50.000;9.064;2022-10-22T01:04:50;99883.47;;;14.27
73734;BMP280;62039;50.000;9.064;2022-10-22T01:07:19;99878.22;;;14.27
73734;BMP280;62039;50.000;9.064;2022-10-22T01:09:51;99879.22;;;14.26
73734;BMP280;62039;50.000;9.064;2022-10-22T01:12:26;99898.00;;;14.23
73734;BMP280;62039;50.000;9.064;2022-10-22T01:15:04;99893.78;;;14.22
73734;BMP280;62039;50.000;9.064;2022-10-22T01:17:39;99900.03;;;14.21
73734;BMP280;62039;50.000;9.064;2022-10-22T01:20:21;99904.03;;;14.17
73734;BMP280;62039;50.000;9.064;2022-10-22T01:22:54;99908.88;;;14.13
73734;BMP280;62039;50.000;9.064;2022-10-22T01:25:30;99901.16;;;14.12
73734;BMP280;62039;50.000;9.064;2022-10-22T01:28:05;99906.41;;;14.12
73734;BMP280;62039;50.000;9.064;2022-10-22T01:30:38;99898.72;;;14.10
73734;BMP280;62039;50.000;9.064;2022-10-22T01:33:08;99895.28;;;14.10
73734;BMP280;62039;50.000;9.064;2022-10-22T01:35:38;99903.16;;;14.10
73734;BMP280;62039;50.000;9.064;2022-10-22T01:38:08;99899.16;;;14.14
73734;BMP280;62039;50.000;9.064;2022-10-22T01:40:35;99903.22;;;14.17
73734;BMP280;62039;50.000;9.064;2022-10-22T01:43:04;99908.28;;;14.18
73734;BMP280;62039;50.000;9.064;2022-10-22T01:45:33;99894.13;;;14.19
73734;BMP280;62039;50.000;9.064;2022-10-22T01:48:07;99896.41;;;14.22
73734;BMP280;62039;50.000;9.064;2022-10-22T01:50:50;99891.91;;;14.23
73734;BMP280;62039;50.000;9.064;2022-10-22T01:53:29;99903.06;;;14.25
73734;BMP280;62039;50.000;9.064;2022-10-22T01:56:16;99909.94;;;14.26
73734;BMP280;62039;50.000;9.064;2022-10-22T01:58:53;99914.19;;;14.27
73734;BMP280;62039;50.000;9.064;2022-10-22T02:01:25;99924.50;;;14.28
73734;BMP280;62039;50.000;9.064;2022-10-22T02:04:00;99918.44;;;14.28
73734;BMP280;62039;50.000;9.064;2022-10-22T02:06:31;99916.19;;;14.25
73734;BMP280;62039;50.000;9.064;2022-10-22T02:08:59;99922.44;;;14.24
73734;BMP280;62039;50.000;9.064;2022-10-22T02:11:27;99929.50;;;14.23
73734;BMP280;62039;50.000;9.064;2022-10-22T02:13:55;99933.94;;;14.23
73734;BMP280;62039;50.000;9.064;2022-10-22T02:16:25;99927.09;;;14.22
73734;BMP280;62039;50.000;9.064;2022-10-22T02:18:54;99921.84;;;14.22
73734;BMP280;62039;50.000;9.064;2022-10-22T02:21:25;99931.53;;;14.21
73734;BMP280;62039;50.000;9.064;2022-10-22T02:23:52;99930.72;;;14.21
73734;BMP280;62039;50.000;9.064;2022-10-22T02:26:31;99937.59;;;14.22
73734;BMP280;62039;50.000;9.064;2022-10-22T02:29:02;99932.53;;;14.20
73734;BMP280;62039;50.000;9.064;2022-10-22T02:31:34;99931.53;;;14.21
73734;BMP280;62039;50.000;9.064;2022-10-22T02:34:04;99928.91;;;14.21
73734;BMP280;62039;50.000;9.064;2022-10-22T02:36:34;99937.59;;;14.22
73734;BMP280;62039;50.000;9.064;2022-10-22T02:39:02;99947.91;;;14.23
73734;BMP280;62039;50.000;9.064;2022-10-22T02:41:29;99946.91;;;14.24
73734;BMP280;62039;50.000;9.064;2022-10-22T02:43:56;99942.47;;;14.25
73734;BMP280;62039;50.000;9.064;2022-10-22T02:46:23;99943.09;;;14.27
73734;BMP280;62039;50.000;9.064;2022-10-22T02:48:50;99941.28;;;14.27
73734;BMP280;62039;50.000;9.064;2022-10-22T02:51:17;99954.41;;;14.27
73734;BMP280;62039;50.000;9.064;2022-10-22T02:53:45;99938.47;;;14.29
73734;BMP280;62039;50.000;9.064;2022-10-22T02:56:12;99930.38;;;14.30
73734;BMP280;62039;50.000;9.064;2022-10-22T02:58:38;99935.44;;;14.32
73734;BMP280;62039;50.000;9.064;2022-10-22T03:01:05;99937.06;;;14.33
73734;BMP280;62039;50.000;9.064;2022-10-22T03:03:31;99939.69;;;14.33
73734;BMP280;62039;50.000;9.064;2022-10-22T03:05:58;99936.06;;;14.34
73734;BMP280;62039;50.000;9.064;2022-10-22T03:08:24;99942.94;;;14.35
73734;BMP280;62039;50.000;9.064;2022-10-22T03:10:52;99945.56;;;14.35
73734;BMP280;62039;50.000;9.064;2022-10-22T03:13:19;99956.06;;;14.35
73734;BMP280;62039;50.000;9.064;2022-10-22T03:15:47;99962.16;;;14.35
73734;BMP280;62039;50.000;9.064;2022-10-22T03:18:14;99960.50;;;14.34
73734;BMP280;62039;50.000;9.064;2022-10-22T03:20:40;99967.41;;;14.35
73734;BMP280;62039;50.000;9.064;2022-10-22T03:23:07;99972.66;;;14.35
73734;BMP280;62039;50.000;9.064;2022-10-22T03:25:34;99982.13;;;14.36
73734;BMP280;62039;50.000;9.064;2022-10-22T03:28:05;99984.56;;;14.38
73734;BMP280;62039;50.000;9.064;2022-10-22T03:30:32;99989.00;;;14.37
73734;BMP280;62039;50.000;9.064;2022-10-22T03:32:58;99990.63;;;14.38
73734;BMP280;62039;50.000;9.064;2022-10-22T03:35:25;99995.91;;;14.38
73734;BMP280;62039;50.000;9.064;2022-10-22T03:37:52;99988.00;;;14.38
73734;BMP280;62039;50.000;9.064;2022-10-22T03:40:19;99985.38;;;14.38
73734;BMP280;62039;50.000;9.064;2022-10-22T03:42:46;99982.75;;;14.38
73734;BMP280;62039;50.000;9.064;2022-10-22T03:45:14;99995.91;;;14.38
73734;BMP280;62039;50.000;9.064;2022-10-22T03:47:40;99981.13;;;14.37
73734;BMP280;62039;50.000;9.064;2022-10-22T03:50:08;99983.97;;;14.36
73734;BMP280;62039;50.000;9.064;2022-10-22T03:52:36;99984.16;;;14.34
73734;BMP280;62039;50.000;9.064;2022-10-22T03:55:04;99985.16;;;14.33
73734;BMP280;62039;50.000;9.064;2022-10-22T03:57:31;99996.66;;;14.32
73734;BMP280;62039;50.000;9.064;2022-10-22T03:59:57;100001.91;;;14.32
73734;BMP280;62039;50.000;9.064;2022-10-22T04:02:25;100002.91;;;14.31
73734;BMP280;62039;50.000;9.064;2022-10-22T04:04:52;100009.00;;;14.32
73734;BMP280;62039;50.000;9.064;2022-10-22T04:07:18;100010.81;;;14.31
73734;BMP280;62039;50.000;9.064;2022-10-22T04:09:45;100003.91;;;14.30
73734;BMP280;62039;50.000;9.064;2022-10-22T04:12:12;100023.13;;;14.31
73734;BMP280;62039;50.000;9.064;2022-10-22T04:14:38;100025.75;;;14.31
73734;BMP280;62039;50.000;9.064;2022-10-22T04:17:05;100031.81;;;14.31
73734;BMP280;62039;50.000;9.064;2022-10-22T04:19:33;100039.53;;;14.33
73734;BMP280;62039;50.000;9.064;2022-10-22T04:21:59;100040.97;;;14.35
73734;BMP280;62039;50.000;9.064;2022-10-22T04:24:26;100045.19;;;14.36
73734;BMP280;62039;50.000;9.064;2022-10-22T04:26:53;100049.25;;;14.39
73734;BMP280;62039;50.000;9.064;2022-10-22T04:29:20;100045.63;;;14.40
73734;BMP280;62039;50.000;9.064;2022-10-22T04:31:46;100041.19;;;14.40
73734;BMP280;62039;50.000;9.064;2022-10-22T04:34:13;100042.81;;;14.41
73734;BMP280;62039;50.000;9.064;2022-10-22T04:36:41;100046.25;;;14.42
73734;BMP280;62039;50.000;9.064;2022-10-22T04:39:07;100044.44;;;14.42
73734;BMP280;62039;50.000;9.064;2022-10-22T04:41:35;100044.44;;;14.42
73734;BMP280;62039;50.000;9.064;2022-10-22T04:44:03;100049.72;;;14.42
73734;BMP280;62039;50.000;9.064;2022-10-22T04:46:31;100048.69;;;14.43
73734;BMP280;62039;50.000;9.064;2022-10-22T04:48:58;100046.03;;;14.43
73734;BMP280;62039;50.000;9.064;2022-10-22T04:51:26;100049.72;;;14.42
73734;BMP280;62039;50.000;9.064;2022-10-22T04:53:54;100056.56;;;14.43
73734;BMP280;62039;50.000;9.064;2022-10-22T04:56:21;100042.59;;;14.43
73734;BMP280;62039;50.000;9.064;2022-10-22T04:58:49;100046.03;;;14.43
73734;BMP280;62039;50.000;9.064;2022-10-22T05:01:18;100052.94;;;14.44
73734;BMP280;62039;50.000;9.064;2022-10-22T05:03:45;100053.94;;;14.43
73734;BMP280;62039;50.000;9.064;2022-10-22T05:06:12;100051.31;;;14.43
73734;BMP280;62039;50.000;9.064;2022-10-22T05:08:39;100048.69;;;14.43
73734;BMP280;62039;50.000;9.064;2022-10-22T05:11:12;100044.22;;;14.44
73734;BMP280;62039;50.000;9.064;2022-10-22T05:13:39;100048.88;;;14.42
73734;BMP280;62039;50.000;9.064;2022-10-22T05:16:06;100055.97;;;14.41
73734;BMP280;62039;50.000;9.064;2022-10-22T05:18:33;100058.59;;;14.41
73734;BMP280;62039;50.000;9.064;2022-10-22T05:21:00;100063.22;;;14.39
73734;BMP280;62039;50.000;9.064;2022-10-22T05:23:26;100062.59;;;14.37
73734;BMP280;62039;50.000;9.064;2022-10-22T05:25:53;100073.50;;;14.34
73734;BMP280;62039;50.000;9.064;2022-10-22T05:28:21;100073.03;;;14.31
73734;BMP280;62039;50.000;9.064;2022-10-22T05:30:52;100070.59;;;14.29
73734;BMP280;62039;50.000;9.064;2022-10-22T05:33:19;100074.63;;;14.25
73734;BMP280;62039;50.000;9.064;2022-10-22T05:35:49;100076.03;;;14.21
73734;BMP280;62039;50.000;9.064;2022-10-22T05:38:16;100079.81;;;14.19
73734;BMP280;62039;50.000;9.064;2022-10-22T05:40:43;100081.81;;;14.17
73734;BMP280;62039;50.000;9.064;2022-10-22T05:43:09;100085.66;;;14.14
73734;BMP280;62039;50.000;9.064;2022-10-22T05:45:38;100098.16;;;14.12
73734;BMP280;62039;50.000;9.064;2022-10-22T05:48:05;100093.25;;;14.09
73734;BMP280;62039;50.000;9.064;2022-10-22T05:50:34;100103.16;;;14.07
73734;BMP280;62039;50.000;9.064;2022-10-22T05:53:00;100106.78;;;14.06
73734;BMP280;62039;50.000;9.064;2022-10-22T05:55:27;100104.34;;;14.04
73734;BMP280;62039;50.000;9.064;2022-10-22T05:57:53;100105.34;;;14.03
73734;BMP280;62039;50.000;9.064;2022-10-22T06:00:20;100114.03;;;14.04
73734;BMP280;62039;50.000;9.064;2022-10-22T06:02:50;100124.72;;;14.02
73734;BMP280;62039;50.000;9.064;2022-10-22T06:05:16;100126.56;;;14.02
73734;BMP280;62039;50.000;9.064;2022-10-22T06:07:43;100123.28;;;14.00
73734;BMP280;62039;50.000;9.064;2022-10-22T06:10:13;100131.81;;;14.02
73734;BMP280;62039;50.000;9.064;2022-10-22T06:12:40;100133.63;;;14.01
73734;BMP280;62039;50.000;9.064;2022-10-22T06:15:08;100131.00;;;14.01
73734;BMP280;62039;50.000;9.064;2022-10-22T06:17:35;100129.53;;;13.99
73734;BMP280;62039;50.000;9.064;2022-10-22T06:20:04;100132.97;;;13.99
73734;BMP280;62039;50.000;9.064;2022-10-22T06:22:35;100133.16;;;13.98
73734;BMP280;62039;50.000;9.064;2022-10-22T06:25:03;100150.72;;;13.97
73734;BMP280;62039;50.000;9.064;2022-10-22T06:27:30;100158.59;;;13.97
73734;BMP280;62039;50.000;9.064;2022-10-22T06:29:56;100163.03;;;13.97
73734;BMP280;62039;50.000;9.064;2022-10-22T06:32:23;100163.03;;;13.97
73734;BMP280;62039;50.000;9.064;2022-10-22T06:34:50;100169.28;;;13.96
73734;BMP280;62039;50.000;9.064;2022-10-22T06:37:17;100169.28;;;13.96
73734;BMP280;62039;50.000;9.064;2022-10-22T06:39:44;100172.91;;;13.95
73734;BMP280;62039;50.000;9.064;2022-10-22T06:42:10;100178.16;;;13.95
73734;BMP280;62039;50.000;9.064;2022-10-22T06:44:37;100181.44;;;13.97
73734;BMP280;62039;50.000;9.064;2022-10-22T06:47:04;100181.25;;;13.98
73734;BMP280;62039;50.000;9.064;2022-10-22T06:49:30;100179.44;;;13.99
73734;BMP280;62039;50.000;9.064;2022-10-22T06:51:57;100179.25;;;14.00
73734;BMP280;62039;50.000;9.064;2022-10-22T06:54:25;100180.69;;;14.03
73734;BMP280;62039;50.000;9.064;2022-10-22T06:56:51;100185.75;;;14.04
73734;BMP280;62039;50.000;9.064;2022-10-22T06:59:18;100189.19;;;14.05
73734;BMP280;62039;50.000;9.064;2022-10-22T07:01:44;100195.25;;;14.05
73734;BMP280;62039;50.000;9.064;2022-10-22T07:04:11;100194.44;;;14.05
73734;BMP280;62039;50.000;9.064;2022-10-22T07:06:38;100200.69;;;14.04
73734;BMP280;62039;50.000;9.064;2022-10-22T07:09:04;100200.09;;;14.02
73734;BMP280;62039;50.000;9.064;2022-10-22T07:11:39;100197.66;;;14.00
73734;BMP280;62039;50.000;9.064;2022-10-22T07:14:06;100210.94;;;13.99
73734;BMP280;62039;50.000;9.064;2022-10-22T07:16:33;100222.44;;;13.98
73734;BMP280;62039;50.000;9.064;2022-10-22T07:19:00;100229.50;;;13.97
73734;BMP280;62039;50.000;9.064;2022-10-22T07:21:26;100228.69;;;13.97
73734;BMP280;62039;50.000;9.064;2022-10-22T07:23:53;100240.00;;;13.97
73734;BMP280;62039;50.000;9.064;2022-10-22T07:26:20;100241.81;;;13.97
73734;BMP280;62039;50.000;9.064;2022-10-22T07:28:48;100240.84;;;13.98
73734;BMP280;62039;50.000;9.064;2022-10-22T07:31:16;100244.09;;;14.00
73734;BMP280;62039;50.000;9.064;2022-10-22T07:33:43;100253.41;;;14.02
73734;BMP280;62039;50.000;9.064;2022-10-22T07:36:11;100254.69;;;14.06
73734;BMP280;62039;50.000;9.064;2022-10-22T07:38:38;100257.13;;;14.08
73734;BMP280;62039;50.000;9.064;2022-10-22T07:41:05;100260.38;;;14.10
73734;BMP280;62039;50.000;9.064;2022-10-22T07:43:31;100260.00;;;14.13
73734;BMP280;62039;50.000;9.064;2022-10-22T07:45:59;100264.69;;;14.18
73734;BMP280;62039;50.000;9.064;2022-10-22T07:48:26;100260.72;;;14.22
73734;BMP280;62039;50.000;9.064;2022-10-22T07:50:52;100260.16;;;14.26
73734;BMP280;62039;50.000;9.064;2022-10-22T07:53:19;100266.47;;;14.32
73734;BMP280;62039;50.000;9.064;2022-10-22T07:55:47;100258.84;;;14.37
73734;BMP280;62039;50.000;9.064;2022-10-22T07:58:13;100272.25;;;14.42
73734;BMP280;62039;50.000;9.064;2022-10-22T08:00:40;100271.69;;;14.46
73734;BMP280;62039;50.000;9.064;2022-10-22T08:03:09;100272.56;;;14.53
73734;BMP280;62039;50.000;9.064;2022-10-22T08:05:36;100281.69;;;14.58
73734;BMP280;62039;50.000;9.064;2022-10-22T08:08:03;100284.78;;;14.61
73734;BMP280;62039;50.000;9.064;2022-10-22T08:10:30;100287.47;;;14.68
73734;BMP280;62039;50.000;9.064;2022-10-22T08:12:56;100289.38;;;14.74
73734;BMP280;62039;50.000;9.064;2022-10-22T08:15:23;100292.88;;;14.81
73734;BMP280;62039;50.000;9.064;2022-10-22T08:17:49;100290.94;;;14.89
73734;BMP280;62039;50.000;9.064;2022-10-22T08:20:18;100285.75;;;14.96
73734;BMP280;62039;50.000;9.064;2022-10-22T08:22:45;100291.25;;;15.01
73734;BMP280;62039;50.000;9.064;2022-10-22T08:25:11;100292.09;;;15.08
73734;BMP280;62039;50.000;9.064;2022-10-22T08:27:38;100283.44;;;15.14
73734;BMP280;62039;50.000;9.064;2022-10-22T08:30:06;100280.06;;;15.20
73734;BMP280;62039;50.000;9.064;2022-10-22T08:32:32;100284.94;;;15.23
73734;BMP280;62039;50.000;9.064;2022-10-22T08:34:59;100279.28;;;15.26
73734;BMP280;62039;50.000;9.064;2022-10-22T08:37:27;100279.50;;;15.31
73734;BMP280;62039;50.000;9.064;2022-10-22T08:39:53;100287.66;;;15.37
73734;BMP280;62039;50.000;9.064;2022-10-22T08:42:37;100285.88;;;15.44
73734;BMP280;62039;50.000;9.064;2022-10-22T08:45:11;100289.59;;;15.49
73734;BMP280;62039;50.000;9.064;2022-10-22T08:47:53;100292.28;;;15.56
73734;BMP280;62039;50.000;9.064;2022-10-22T08:50:29;100294.94;;;15.62
73734;BMP280;62039;50.000;9.064;2022-10-22T08:53:03;100292.53;;;15.67
73734;BMP280;62039;50.000;9.064;2022-10-22T08:55:30;100299.03;;;15.72
73734;BMP280;62039;50.000;9.064;2022-10-22T08:58:07;100295.84;;;15.76
73734;BMP280;62039;50.000;9.064;2022-10-22T09:00:40;100298.50;;;15.83
73734;BMP280;62039;50.000;9.064;2022-10-22T09:03:22;100301.16;;;15.89
73734;BMP280;62039;50.000;9.064;2022-10-22T09:05:55;100305.66;;;15.95
73734;BMP280;62039;50.000;9.064;2022-10-22T09:08:27;100302.84;;;16.03
73734;BMP280;62039;50.000;9.064;2022-10-22T09:10:57;100303.69;;;16.11
73734;BMP280;62039;50.000;9.064;2022-10-22T09:13:26;100310.81;;;16.17
73734;BMP280;62039;50.000;9.064;2022-10-22T09:15:55;100303.34;;;16.27
73734;BMP280;62039;50.000;9.064;2022-10-22T09:18:34;100305.00;;;16.34
73734;BMP280;62039;50.000;9.064;2022-10-22T09:21:08;100307.47;;;16.42
73734;BMP280;62039;50.000;9.064;2022-10-22T09:23:52;100315.00;;;16.52
73734;BMP280;62039;50.000;9.064;2022-10-22T09:26:19;100315.44;;;16.62
73734;BMP280;62039;50.000;9.064;2022-10-22T09:28:49;100319.72;;;16.76
73734;BMP280;62039;50.000;9.064;2022-10-22T09:31:15;100311.38;;;16.86
73734;BMP280;62039;50.000;9.064;2022-10-22T09:33:43;100314.28;;;16.98
73734;BMP280;62039;50.000;9.064;2022-10-22T09:36:15;100316.94;;;17.11
73734;BMP280;62039;50.000;9.064;2022-10-22T09:38:47;100311.66;;;17.24
73734;BMP280;62039;50.000;9.064;2022-10-22T09:41:14;100317.94;;;17.36
73734;BMP280;62039;50.000;9.064;2022-10-22T09:43:41;100313.63;;;17.48
73734;BMP280;62039;50.000;9.064;2022-10-22T09:46:14;100318.31;;;17.59
73734;BMP280;62039;50.000;9.064;2022-10-22T09:48:43;100317.09;;;17.69
73734;BMP280;62039;50.000;9.064;2022-10-22T09:51:17;100317.88;;;17.82
73734;BMP280;62039;50.000;9.064;2022-10-22T09:53:47;100321.72;;;17.93
73734;BMP280;62039;50.000;9.064;2022-10-22T09:56:23;100326.34;;;18.04
73734;BMP280;62039;50.000;9.064;2022-10-22T09:58:50;100320.38;;;18.15
73734;BMP280;62039;50.000;9.064;2022-10-22T10:01:19;100320.34;;;18.28
73734;BMP280;62039;50.000;9.064;2022-10-22T10:03:48;100323.94;;;18.40
73734;BMP280;62039;50.000;9.064;2022-10-22T10:06:17;100331.22;;;18.52
73734;BMP280;62039;50.000;9.064;2022-10-22T10:08:45;100327.91;;;18.63
73734;BMP280;62039;50.000;9.064;2022-10-22T10:11:17;100326.44;;;18.73
73734;BMP280;62039;50.000;9.064;2022-10-22T10:13:54;100328.38;;;18.85
73734;BMP280;62039;50.000;9.064;2022-10-22T10:16:32;100324.03;;;18.97
73734;BMP280;62039;50.000;9.064;2022-10-22T10:19:16;100324.75;;;19.10
73734;BMP280;62039;50.000;9.064;2022-10-22T10:21:50;100329.91;;;19.24
73734;BMP280;62039;50.000;9.064;2022-10-22T10:24:29;100331.44;;;19.38
73734;BMP280;62039;50.000;9.064;2022-10-22T10:27:04;100328.66;;;19.51
73734;BMP280;62039;50.000;9.064;2022-10-22T10:29:39;100324.28;;;19.63
73734;BMP280;62039;50.000;9.064;2022-10-22T10:32:19;100326.78;;;19.76
73734;BMP280;62039;50.000;9.064;2022-10-22T10:34:59;100323.75;;;19.91
73734;BMP280;62039;50.000;9.064;2022-10-22T10:37:32;100314.84;;;20.04
73734;BMP280;62039;50.000;9.064;2022-10-22T10:40:13;100316.31;;;20.18
73734;BMP280;62039;50.000;9.064;2022-10-22T10:42:45;100312.47;;;20.32
73734;BMP280;62039;50.000;9.064;2022-10-22T10:45:16;100308.59;;;20.46
73734;BMP280;62039;50.000;9.064;2022-10-22T10:48:02;100314.06;;;20.63
73734;BMP280;62039;50.000;9.064;2022-10-22T10:50:40;100317.50;;;20.82
73734;BMP280;62039;50.000;9.064;2022-10-22T10:53:13;100318.44;;;20.99
73734;BMP280;62039;50.000;9.064;2022-10-22T10:55:52;100317.31;;;21.18
73734;BMP280;62039;50.000;9.064;2022-10-22T10:58:29;100310.06;;;21.37
73734;BMP280;62039;50.000;9.064;2022-10-22T11:01:01;100312.84;;;21.53
73734;BMP280;62039;50.000;9.064;2022-10-22T11:03:38;100302.53;;;21.69
73734;BMP280;62039;50.000;9.064;2022-10-22T11:06:07;100296.94;;;21.82
73734;BMP280;62039;50.000;9.064;2022-10-22T11:08:36;100294.59;;;21.97
73734;BMP280;62039;50.000;9.064;2022-10-22T11:11:09;100286.94;;;22.12
73734;BMP280;62039;50.000;9.064;2022-10-22T11:13:40;100290.34;;;22.24
73734;BMP280;62039;50.000;9.064;2022-10-22T11:16:13;100284.97;;;22.36
73734;BMP280;62039;50.000;9.064;2022-10-22T11:18:47;100282.25;;;22.48
73734;BMP280;62039;50.000;9.064;2022-10-22T11:21:20;100284.06;;;22.59
73734;BMP280;62039;50.000;9.064;2022-10-22T11:23:55;100287.22;;;22.73
73734;BMP280;62039;50.000;9.064;2022-10-22T11:26:35;100287.22;;;22.89
73734;BMP280;62039;50.000;9.064;2022-10-22T11:29:04;100278.44;;;23.05
73734;BMP280;62039;50.000;9.064;2022-10-22T11:31:32;100278.66;;;23.21
73734;BMP280;62039;50.000;9.064;2022-10-22T11:34:08;100283.34;;;23.30
73734;BMP280;62039;50.000;9.064;2022-10-22T11:36:57;100279.94;;;23.35
73734;BMP280;62039;50.000;9.064;2022-10-22T11:39:35;100281.63;;;23.41
73734;BMP280;62039;50.000;9.064;2022-10-22T11:42:09;100285.91;;;23.42
73734;BMP280;62039;50.000;9.064;2022-10-22T11:44:45;100285.09;;;23.41
73734;BMP280;62039;50.000;9.064;2022-10-22T11:47:17;100281.03;;;23.39
73734;BMP280;62039;50.000;9.064;2022-10-22T11:49:53;100283.06;;;23.32
73734;BMP280;62039;50.000;9.064;2022-10-22T11:52:24;100271.81;;;23.25
73734;BMP280;62039;50.000;9.064;2022-10-22T11:54:56;100266.91;;;23.17
73734;BMP280;62039;50.000;9.064;2022-10-22T11:57:28;100272.94;;;23.12
73734;BMP280;62039;50.000;9.064;2022-10-22T12:00:08;100272.88;;;23.07
73734;BMP280;62039;50.000;9.064;2022-10-22T12:02:40;100269.97;;;23.08
73734;BMP280;62039;50.000;9.064;2022-10-22T12:05:34;100261.97;;;23.08
73734;BMP280;62039;50.000;9.064;2022-10-22T12:08:20;100268.69;;;23.11
73734;BMP280;62039;50.000;9.064;2022-10-22T12:11:11;100267.38;;;23.14
73734;BMP280;62039;50.000;9.064;2022-10-22T12:14:15;100264.47;;;23.15
73734;BMP280;62039;50.000;9.064;2022-10-22T12:16:44;100266.91;;;23.17
73734;BMP280;62039;50.000;9.064;2022-10-22T12:19:29;100269.06;;;23.20
73734;BMP280;62039;50.000;9.064;2022-10-22T12:21:58;100271.31;;;23.28
73734;BMP280;62039;50.000;9.064;2022-10-22T12:24:29;100273.31;;;23.37
73734;BMP280;62039;50.000;9.064;2022-10-22T12:26:56;100273.13;;;23.44
73734;BMP280;62039;50.000;9.064;2022-10-22T12:29:24;100267.91;;;23.54
73734;BMP280;62039;50.000;9.064;2022-10-22T12:31:51;100265.09;;;23.61
73734;BMP280;62039;50.000;9.064;2022-10-22T12:34:22;100264.38;;;23.65
73734;BMP280;62039;50.000;9.064;2022-10-22T12:36:50;100265.47;;;23.69
73734;BMP280;62039;50.000;9.064;2022-10-22T12:39:19;100265.53;;;23.74
73734;BMP280;62039;50.000;9.064;2022-10-22T12:41:46;100265.59;;;23.79
73734;BMP280;62039;50.000;9.064;2022-10-22T12:44:15;100266.19;;;23.86
73734;BMP280;62039;50.000;9.064;2022-10-22T12:46:45;100259.63;;;23.94
73734;BMP280;62039;50.000;9.064;2022-10-22T12:49:16;100256.22;;;23.99
73734;BMP280;62039;50.000;9.064;2022-10-22T12:51:44;100264.28;;;24.04
73734;BMP280;62039;50.000;9.064;2022-10-22T12:54:21;100261.41;;;24.10
73734;BMP280;62039;50.000;9.064;2022-10-22T12:56:48;100261.72;;;24.14
73734;BMP280;62039;50.000;9.064;2022-10-22T12:59:19;100262.84;;;24.18
73734;BMP280;62039;50.000;9.064;2022-10-22T13:01:48;100263.94;;;24.22
73734;BMP280;62039;50.000;9.064;2022-10-22T13:04:29;100267.19;;;24.24
73734;BMP280;62039;50.000;9.064;2022-10-22T13:07:05;100260.50;;;24.26
73734;BMP280;62039;50.000;9.064;2022-10-22T13:09:38;100268.59;;;24.32
73734;BMP280;62039;50.000;9.064;2022-10-22T13:12:05;100259.81;;;24.36
73734;BMP280;62039;50.000;9.064;2022-10-22T13:14:34;100266.31;;;24.45
73734;BMP280;62039;50.000;9.064;2022-10-22T13:17:08;100260.78;;;24.57
73734;BMP280;62039;50.000;9.064;2022-10-22T13:19:38;100265.97;;;24.69
73734;BMP280;62039;50.000;9.064;2022-10-22T13:22:24;100270.84;;;24.77
73734;BMP280;62039;50.000;9.064;2022-10-22T13:24:51;100265.56;;;24.87
73734;BMP280;62039;50.000;9.064;2022-10-22T13:27:18;100255.78;;;24.97
73734;BMP280;62039;50.000;9.064;2022-10-22T13:29:45;100257.69;;;25.07
73734;BMP280;62039;50.000;9.064;2022-10-22T13:32:26;100261.75;;;25.15
73734;BMP280;62039;50.000;9.064;2022-10-22T13:34:54;100268.75;;;25.21
73734;BMP280;62039;50.000;9.064;2022-10-22T13:37:21;100258.94;;;25.26
73734;BMP280;62039;50.000;9.064;2022-10-22T13:39:48;100256.28;;;25.31
73734;BMP280;62039;50.000;9.064;2022-10-22T13:42:14;100261.91;;;25.35
73734;BMP280;62039;50.000;9.064;2022-10-22T13:44:41;100257.91;;;25.37
73734;BMP280;62039;50.000;9.064;2022-10-22T13:47:09;100272.09;;;25.38
73734;BMP280;62039;50.000;9.064;2022-10-22T13:49:42;100267.25;;;25.35
73734;BMP280;62039;50.000;9.064;2022-10-22T13:52:14;100272.06;;;25.33
73734;BMP280;62039;50.000;9.064;2022-10-22T13:54:43;100266.41;;;25.24
73734;BMP280;62039;50.000;9.064;2022-10-22T13:57:09;100263.91;;;25.18
73734;BMP280;62039;50.000;9.064;2022-10-22T13:59:36;100269.25;;;25.13
73734;BMP280;62039;50.000;9.064;2022-10-22T14:02:08;100262.78;;;25.09
73734;BMP280;62039;50.000;9.064;2022-10-22T14:04:38;100258.47;;;25.02
73734;BMP280;62039;50.000;9.064;2022-10-22T14:07:11;100270.44;;;24.95
73734;BMP280;62039;50.000;9.064;2022-10-22T14:09:38;100261.78;;;24.78
73734;BMP280;62039;50.000;9.064;2022-10-22T14:12:10;100262.19;;;24.64
73734;BMP280;62039;50.000;9.064;2022-10-22T14:14:36;100265.53;;;24.50